createdAt,value
2019-02-19T00:01:27.478Z,85.6
2019-02-19T00:11:28.120Z,87.0
2019-02-19T00:21:26.191Z,84.9
2019-02-19T00:31:25.772Z,82.3
2019-02-19T00:41:26.260Z,84.5
2019-02-19T00:51:27.566Z,84.5
2019-02-19T01:01:28.156Z,88.5
2019-02-19T01:11:27.679Z,78.2
2019-02-19T01:21:27.648Z,81.7
2019-02-19T01:31:28.504Z,84.7
2019-02-19T01:41:25.971Z,80.0
2019-02-19T01:51:26.472Z,80.4
2019-02-19T02:01:26.714Z,77.8
2019-02-19T02:11:27.461Z,76.3
2019-02-19T02:21:26.238Z,75.2
2019-02-19T02:31:26.431Z,68.3
2019-02-19T02:41:31.523Z,71.8
2019-02-19T02:51:26.127Z,69.7
2019-02-19T03:01:27.196Z,69.3
2019-02-19T03:11:26.332Z,66.2
2019-02-19T03:21:26.991Z,68.7
2019-02-19T03:31:28.808Z,65.7
2019-02-19T03:41:26.454Z,66.3
2019-02-19T03:51:27.163Z,70.3
2019-02-19T04:01:27.622Z,65.8
2019-02-19T04:11:28.822Z,64.3
2019-02-19T04:21:27.266Z,66.1
2019-02-19T04:31:26.007Z,72.7
2019-02-19T04:41:26.994Z,71.7
2019-02-19T04:51:27.795Z,69.6
2019-02-19T05:01:31.918Z,68.7
2019-02-19T05:11:28.797Z,69.0
2019-02-19T05:21:27.838Z,68.7
2019-02-19T05:31:27.054Z,71.1
2019-02-19T05:41:27.678Z,70.3
2019-02-19T05:51:27.577Z,67.1
2019-02-19T06:01:26.100Z,53.1
2019-02-19T06:11:29.399Z,57.0
2019-02-19T06:21:29.062Z,59.3
2019-02-19T06:31:26.439Z,61.1
2019-02-19T06:41:26.288Z,56.0
2019-02-19T06:51:26.076Z,52.7
2019-02-19T07:01:32.181Z,56.2
2019-02-19T07:11:26.946Z,51.2
2019-02-19T07:21:32.662Z,50.7
2019-02-19T07:31:32.189Z,52.1
2019-02-19T07:41:25.780Z,63.5
2019-02-19T07:51:26.347Z,63.1
2019-02-19T08:01:29.599Z,64.6
2019-02-19T08:11:26.073Z,67.0
2019-02-19T08:21:25.965Z,72.0
2019-02-19T08:31:29.101Z,72.6
2019-02-19T08:41:25.577Z,74.3
2019-02-19T08:51:27.514Z,68.5
2019-02-19T09:01:26.418Z,68.5
2019-02-19T09:11:29.450Z,66.9
2019-02-19T09:21:26.748Z,61.6
2019-02-19T09:31:27.884Z,53.1
2019-02-19T09:41:29.917Z,39.2
2019-02-19T09:51:26.430Z,32.7
2019-02-19T10:01:28.028Z,30.2
2019-02-19T10:11:26.203Z,27.7
2019-02-19T10:21:26.394Z,27.6
2019-02-19T10:31:26.140Z,25.7
2019-02-19T10:41:31.254Z,19.9
2019-02-19T10:51:25.815Z,17.8
2019-02-19T11:01:27.868Z,19.0
2019-02-19T11:11:26.546Z,21.1
2019-02-19T11:21:28.113Z,19.1
2019-02-19T11:31:26.979Z,18.1
2019-02-19T11:41:27.274Z,18.9
2019-02-19T11:51:26.818Z,17.8
2019-02-19T12:01:26.689Z,17.1
2019-02-19T12:11:31.974Z,17.0
2019-02-19T12:21:28.683Z,16.9
2019-02-19T12:31:26.561Z,18.3
2019-02-19T12:41:26.251Z,19.5
2019-02-19T12:51:26.553Z,20.3
2019-02-19T13:01:26.615Z,17.9
2019-02-19T13:11:26.285Z,15.4
2019-02-19T13:21:26.590Z,17.4
2019-02-19T13:31:26.325Z,16.2
2019-02-19T13:41:26.264Z,14.2
2019-02-19T13:51:26.096Z,16.0
2019-02-19T14:01:32.157Z,13.3
2019-02-19T14:11:26.435Z,16.9
2019-02-19T14:21:26.907Z,14.7
2019-02-19T14:31:29.640Z,16.0
2019-02-19T14:41:27.049Z,16.8
2019-02-19T14:51:27.358Z,19.5
2019-02-19T15:01:26.889Z,18.0
2019-02-19T15:11:26.663Z,20.0
2019-02-19T15:21:26.802Z,21.0
2019-02-19T15:31:26.498Z,19.6
2019-02-19T15:41:26.323Z,20.0
2019-02-19T15:51:27.474Z,20.6
2019-02-19T16:01:27.613Z,20.7
2019-02-19T16:11:26.768Z,20.1
2019-02-19T16:21:26.719Z,17.7
2019-02-19T16:31:28.254Z,19.6
2019-02-19T16:41:25.799Z,19.5
2019-02-19T16:51:26.561Z,21.9
2019-02-19T17:01:26.879Z,21.6
2019-02-19T17:11:27.403Z,23.7
2019-02-19T17:21:27.005Z,23.4
2019-02-19T17:31:28.167Z,24.3
2019-02-19T17:41:25.844Z,26.5
2019-02-19T17:51:26.745Z,24.6
2019-02-19T18:01:27.263Z,23.0
2019-02-19T18:11:26.060Z,26.7
2019-02-19T18:21:28.836Z,25.5
2019-02-19T18:31:27.490Z,26.0
2019-02-19T18:41:27.769Z,24.7
2019-02-19T18:51:26.557Z,26.7
2019-02-19T19:01:27.675Z,26.6
2019-02-19T19:11:27.415Z,25.3
2019-02-19T19:21:28.001Z,26.7
2019-02-19T19:31:33.283Z,26.7
2019-02-19T19:41:27.470Z,27.9
2019-02-19T19:51:26.659Z,30.0
2019-02-19T20:01:27.113Z,33.2
2019-02-19T20:11:26.491Z,32.4
2019-02-19T20:21:27.185Z,29.7
2019-02-19T20:31:27.210Z,36.4
2019-02-19T20:41:28.789Z,32.8
2019-02-19T20:51:36.067Z,32.0
2019-02-19T21:01:26.551Z,31.2
2019-02-19T21:11:27.658Z,36.0
2019-02-19T21:21:27.278Z,38.2
2019-02-19T21:31:26.004Z,40.8
2019-02-19T21:41:26.623Z,46.2
2019-02-19T21:51:26.739Z,43.3
2019-02-19T22:01:26.440Z,40.9
2019-02-19T22:11:26.800Z,42.3
2019-02-19T22:21:28.391Z,46.2
2019-02-19T22:31:26.075Z,33.2
2019-02-19T22:41:29.167Z,23.7
2019-02-19T22:51:25.707Z,18.6
2019-02-19T23:01:26.279Z,15.6
2019-02-19T23:11:27.170Z,15.4
2019-02-19T23:21:26.346Z,16.9
2019-02-19T23:31:26.307Z,17.5
2019-02-19T23:41:26.826Z,20.3
2019-02-19T23:51:26.261Z,21.8
